createdAt,value
2023-01-01T00:00:26.739Z,70.29
2023-01-01T00:01:26.692Z,70.23
2023-01-01T00:02:30.394Z,70.23
2023-01-01T00:03:26.654Z,70.23
2023-01-01T00:04:47.644Z,70.33
2023-01-01T00:05:26.604Z,70.14
2023-01-01T00:06:26.590Z,70.14
2023-01-01T00:07:26.586Z,69.95
2023-01-01T00:08:26.571Z,70.14
2023-01-01T00:09:26.551Z,70.90
2023-01-01T00:10:47.538Z,70.81
2023-01-01T00:11:26.522Z,70.81
2023-01-01T00:12:26.501Z,70.61
2023-01-01T00:13:26.490Z,70.61
2023-01-01T00:14:26.482Z,70.61
2023-01-01T00:15:26.474Z,70.61
2023-01-01T00:16:47.578Z,70.71
2023-01-01T00:17:26.439Z,70.61
2023-01-01T00:18:26.427Z,70.52
2023-01-01T00:19:26.405Z,70.61
2023-01-01T00:20:31.472Z,70.61
2023-01-01T00:21:26.376Z,70.81
2023-01-01T00:22:55.818Z,70.71
2023-01-01T00:23:26.349Z,70.61
2023-01-01T00:24:26.335Z,70.71
2023-01-01T00:25:26.326Z,70.61
2023-01-01T00:26:31.013Z,70.42
2023-01-01T00:27:26.293Z,70.81
2023-01-01T00:28:47.282Z,70.61
2023-01-01T00:29:26.269Z,70.90
2023-01-01T00:30:26.265Z,70.81
2023-01-01T00:31:26.260Z,70.81
2023-01-01T00:32:26.283Z,70.61
2023-01-01T00:33:26.218Z,71.09
2023-01-01T00:34:47.193Z,71.09
2023-01-01T00:35:26.209Z,71.09
2023-01-01T00:36:26.200Z,71.28
2023-01-01T00:37:26.161Z,70.81
2023-01-01T01:32:23.284Z,72.33
2023-01-01T01:33:23.292Z,72.53
2023-01-01T01:34:27.852Z,72.53
2023-01-01T01:35:23.226Z,72.53
2023-01-01T01:36:23.213Z,72.43
2023-01-01T01:37:23.201Z,72.62
2023-01-01T01:38:23.177Z,72.81
2023-01-01T01:39:23.214Z,72.53
2023-01-01T01:40:23.145Z,72.62
2023-01-01T01:41:28.314Z,72.62
2023-01-01T01:42:23.162Z,72.62
2023-01-01T01:43:23.190Z,72.62
2023-01-01T01:44:23.098Z,72.91
2023-01-01T01:45:27.045Z,72.91
2023-01-01T01:46:23.126Z,72.72
2023-01-01T01:47:23.069Z,72.91
2023-01-01T01:48:23.069Z,72.81
2023-01-01T01:49:23.049Z,72.91
2023-01-01T01:50:23.028Z,72.81
2023-01-01T01:51:23.021Z,72.68
2023-01-01T01:52:22.983Z,72.58
2023-01-01T01:53:22.995Z,72.68
2023-01-01T01:54:22.956Z,72.68
2023-01-01T01:55:22.932Z,73.44
2023-01-01T01:56:22.951Z,73.44
2023-01-01T01:57:22.924Z,73.16
2023-01-01T01:58:22.886Z,73.44
2023-01-01T01:59:22.873Z,73.16
2023-01-01T02:00:22.904Z,73.25
2023-01-01T02:01:22.906Z,73.25
2023-01-01T02:02:23.055Z,73.07
2023-01-01T02:03:22.899Z,73.35
2023-01-01T02:04:22.823Z,73.25
2023-01-01T02:05:22.798Z,73.25
2023-01-01T02:06:22.791Z,73.35
2023-01-01T02:07:22.800Z,73.44
2023-01-01T02:08:22.748Z,73.35
2023-01-01T02:09:22.733Z,73.44
2023-01-01T02:10:22.731Z,73.35
2023-01-01T02:11:22.704Z,73.54
2023-01-01T02:12:22.685Z,73.54
2023-01-01T02:13:22.671Z,73.35
2023-01-01T02:14:22.684Z,73.35
2023-01-01T02:15:22.639Z,73.35
2023-01-01T02:16:22.672Z,73.63
2023-01-01T02:17:22.613Z,73.92
2023-01-01T02:18:22.600Z,73.83
2023-01-01T02:19:22.616Z,73.44
2023-01-01T02:20:22.608Z,73.92
2023-01-01T02:21:22.583Z,74.02
2023-01-01T02:22:22.607Z,73.83
2023-01-01T02:23:22.523Z,73.35
2023-01-01T02:24:22.507Z,73.92
2023-01-01T02:25:22.496Z,73.92
2023-01-01T02:26:22.489Z,73.83
2023-01-01T02:27:22.503Z,74.02
2023-01-01T02:28:22.467Z,73.83
2023-01-01T02:29:22.472Z,73.92
2023-01-01T02:30:22.492Z,73.83
2023-01-01T02:31:23.670Z,73.63
2023-01-01T02:32:22.471Z,73.92
2023-01-01T02:33:22.381Z,74.78
2023-01-01T02:34:22.379Z,74.02
2023-01-01T02:35:22.395Z,73.83
2023-01-01T02:36:22.343Z,74.05
2023-01-01T02:37:22.322Z,73.96
2023-01-01T02:38:22.303Z,73.86
2023-01-01T02:39:22.296Z,73.83
2023-01-01T02:40:22.284Z,73.83
2023-01-01T02:41:22.275Z,73.86
2023-01-01T02:42:22.251Z,74.15
2023-01-01T02:43:24.981Z,73.73
2023-01-01T02:44:22.223Z,73.67
2023-01-01T02:45:22.221Z,74.05
2023-01-01T02:46:43.191Z,73.67
2023-01-01T02:47:22.181Z,74.15
2023-01-01T02:48:22.163Z,73.86
2023-01-01T02:49:22.158Z,74.05
2023-01-01T02:50:22.174Z,73.86
2023-01-01T02:51:22.119Z,74.05
2023-01-01T02:52:22.118Z,73.86
2023-01-01T02:53:22.090Z,73.86
2023-01-01T02:54:22.096Z,73.96
2023-01-01T02:55:22.071Z,73.96
2023-01-01T02:56:22.044Z,73.86
2023-01-01T02:57:22.036Z,73.77
2023-01-01T02:58:22.016Z,74.15
2023-01-01T02:59:22.004Z,73.96
2023-01-01T03:00:21.992Z,74.63
2023-01-01T03:01:22.105Z,73.86
2023-01-01T03:02:22.248Z,74.15
2023-01-01T03:03:21.978Z,74.49
2023-01-01T03:04:21.939Z,74.44
2023-01-01T03:05:21.930Z,74.63
2023-01-01T03:06:21.900Z,74.53
2023-01-01T03:07:21.906Z,74.53
2023-01-01T03:08:21.917Z,74.15
2023-01-01T03:09:21.862Z,74.44
2023-01-01T03:10:21.848Z,74.34
2023-01-01T03:11:21.833Z,74.53
2023-01-01T03:12:21.824Z,74.44
2023-01-01T03:13:21.802Z,74.40
2023-01-01T03:14:21.784Z,74.53
2023-01-01T03:15:21.792Z,74.44
2023-01-01T03:16:21.790Z,74.15
2023-01-01T03:17:21.748Z,74.59
2023-01-01T03:18:21.731Z,74.11
2023-01-01T03:19:21.710Z,74.49
2023-01-01T03:20:21.696Z,74.30
2023-01-01T03:21:21.690Z,74.11
2023-01-01T03:22:21.672Z,74.21
2023-01-01T03:23:21.659Z,74.49
2023-01-01T03:24:21.644Z,74.69
2023-01-01T03:25:21.626Z,74.44
2023-01-01T03:26:21.613Z,74.34
2023-01-01T03:27:21.601Z,74.24
2023-01-01T03:28:21.584Z,74.02
2023-01-01T03:29:21.571Z,74.30
2023-01-01T03:30:21.557Z,74.05
2023-01-01T03:31:21.591Z,73.92
2023-01-01T03:32:21.541Z,74.34
2023-01-01T03:33:21.516Z,74.34
2023-01-01T03:34:21.500Z,74.44
2023-01-01T03:35:21.481Z,73.92
2023-01-01T03:36:21.477Z,73.96
2023-01-01T03:37:21.454Z,74.34
2023-01-01T03:38:21.440Z,74.15
2023-01-01T03:39:21.432Z,74.11
2023-01-01T03:40:21.414Z,74.24
2023-01-01T03:41:21.395Z,74.49
2023-01-01T03:42:21.387Z,74.34
2023-01-01T03:43:21.377Z,74.34
2023-01-01T03:44:21.384Z,74.34
2023-01-01T03:45:21.348Z,74.05
2023-01-01T03:46:21.341Z,74.05
2023-01-01T03:47:21.307Z,73.96
2023-01-01T03:48:21.301Z,74.24
2023-01-01T03:49:21.292Z,74.49
2023-01-01T03:50:21.265Z,74.44
2023-01-01T03:51:21.252Z,74.15
2023-01-01T03:52:21.235Z,74.49
2023-01-01T03:53:21.219Z,73.96
2023-01-01T03:54:21.211Z,74.44
2023-01-01T03:55:21.195Z,74.73
2023-01-01T03:56:21.189Z,73.96
2023-01-01T03:57:21.163Z,74.53
2023-01-01T03:58:21.155Z,74.05
2023-01-01T03:59:21.135Z,74.24
2023-01-01T04:00:21.127Z,74.05
2023-01-01T04:01:21.293Z,74.73
2023-01-01T04:02:21.142Z,73.96
2023-01-01T04:03:21.115Z,74.05
2023-01-01T04:04:21.063Z,73.96
2023-01-01T04:05:21.087Z,74.44
2023-01-01T04:06:21.110Z,74.05
2023-01-01T04:07:21.045Z,74.73
2023-01-01T04:08:21.019Z,74.15
2023-01-01T04:09:20.990Z,73.96
2023-01-01T04:10:20.978Z,74.44
2023-01-01T04:11:20.963Z,74.15
2023-01-01T04:12:20.959Z,74.53
2023-01-01T04:13:20.952Z,74.34
2023-01-01T04:14:20.934Z,74.05
2023-01-01T04:15:20.907Z,74.44
2023-01-01T04:16:21.007Z,74.44
2023-01-01T04:17:20.876Z,74.44
2023-01-01T04:18:20.863Z,74.44
2023-01-01T04:19:20.858Z,74.44
2023-01-01T04:20:20.829Z,74.15
2023-01-01T04:21:20.830Z,74.49
2023-01-01T04:22:20.805Z,74.40
2023-01-01T04:23:20.792Z,74.02
2023-01-01T04:24:20.773Z,74.78
2023-01-01T04:25:20.782Z,73.92
2023-01-01T04:26:20.747Z,74.40
2023-01-01T04:27:20.791Z,74.49
2023-01-01T04:28:20.760Z,74.11
2023-01-01T04:29:20.762Z,74.11
2023-01-01T04:30:20.694Z,74.11
2023-01-01T04:31:20.677Z,74.59
2023-01-01T04:32:20.673Z,74.78
2023-01-01T04:33:20.655Z,74.30
2023-01-01T04:34:20.695Z,74.40
2023-01-01T04:35:20.619Z,74.30
2023-01-01T04:36:20.603Z,74.30
2023-01-01T04:37:20.585Z,74.11
2023-01-01T04:38:20.611Z,74.11
2023-01-01T04:39:20.592Z,74.49
2023-01-01T04:40:20.592Z,74.40
2023-01-01T04:41:20.536Z,74.21
2023-01-01T04:42:20.531Z,74.11
2023-01-01T04:43:20.561Z,73.92
2023-01-01T04:44:20.547Z,74.49
2023-01-01T04:45:20.503Z,74.30
2023-01-01T04:46:20.540Z,74.59
2023-01-01T04:47:20.523Z,74.21
2023-01-01T04:48:20.600Z,74.11
2023-01-01T04:49:20.475Z,74.30
2023-01-01T04:50:20.416Z,74.11
2023-01-01T04:51:20.387Z,74.78
2023-01-01T04:52:20.389Z,74.49
2023-01-01T04:53:20.364Z,74.78
2023-01-01T04:54:20.344Z,74.40
2023-01-01T04:55:20.324Z,74.59
2023-01-01T04:56:20.326Z,74.59
2023-01-01T04:57:20.301Z,74.78
2023-01-01T04:58:20.281Z,74.49
2023-01-01T04:59:20.309Z,74.40
2023-01-01T05:00:20.271Z,74.30
2023-01-01T05:01:20.409Z,74.69
2023-01-01T05:02:20.332Z,74.78
2023-01-01T05:03:20.235Z,74.59
2023-01-01T05:04:20.198Z,74.59
2023-01-01T05:05:20.176Z,74.59
2023-01-01T05:06:20.162Z,74.59
2023-01-01T05:07:20.151Z,74.40
2023-01-01T05:08:20.143Z,74.88
2023-01-01T05:09:20.122Z,74.49
2023-01-01T05:10:20.113Z,74.49
2023-01-01T05:11:20.099Z,74.59
2023-01-01T05:12:20.082Z,74.98
2023-01-01T05:13:20.064Z,74.88
2023-01-01T05:14:20.068Z,74.11
2023-01-01T05:15:20.055Z,74.11
2023-01-01T05:16:20.105Z,74.69
2023-01-01T05:17:20.002Z,74.11
2023-01-01T05:18:20.021Z,74.02
2023-01-01T05:19:20.001Z,74.78
2023-01-01T05:20:19.965Z,73.73
2023-01-01T05:21:19.944Z,74.40
2023-01-01T05:22:19.928Z,74.21
2023-01-01T05:23:19.915Z,74.49
2023-01-01T05:24:19.903Z,74.21
2023-01-01T05:25:19.916Z,74.40
2023-01-01T05:26:19.873Z,74.49
2023-01-01T05:27:19.863Z,74.02
2023-01-01T05:28:19.848Z,74.02
2023-01-01T05:29:19.832Z,74.11
2023-01-01T05:30:19.814Z,74.30
2023-01-01T05:31:19.870Z,74.21
2023-01-01T05:32:19.798Z,74.21
2023-01-01T05:33:19.777Z,74.02
2023-01-01T05:34:19.759Z,74.30
2023-01-01T05:35:24.555Z,74.40
2023-01-01T05:36:19.723Z,74.69
2023-01-01T05:37:19.711Z,74.11
2023-01-01T05:38:19.717Z,74.40
2023-01-01T05:39:19.727Z,74.49
2023-01-01T05:40:19.673Z,74.49
2023-01-01T05:41:19.652Z,74.49
2023-01-01T05:42:19.638Z,74.40
2023-01-01T05:43:19.626Z,74.40
2023-01-01T05:44:19.668Z,74.59
2023-01-01T05:45:19.623Z,74.40
2023-01-01T05:46:19.638Z,74.21
2023-01-01T05:47:19.565Z,74.69
2023-01-01T05:48:19.562Z,74.59
2023-01-01T05:49:19.584Z,74.21
2023-01-01T05:50:19.555Z,74.11
2023-01-01T05:51:19.500Z,73.92
2023-01-01T05:52:26.139Z,73.92
2023-01-01T05:53:19.476Z,73.83
2023-01-01T05:54:19.529Z,74.21
2023-01-01T05:55:19.461Z,73.92
2023-01-01T05:56:19.432Z,73.83
2023-01-01T05:57:19.417Z,73.83
2023-01-01T05:58:19.444Z,73.83
2023-01-01T05:59:19.415Z,73.83
2023-01-01T06:00:19.379Z,74.02
2023-01-01T06:01:19.420Z,74.02
2023-01-01T06:02:19.388Z,73.92
2023-01-01T06:03:19.356Z,74.02
2023-01-01T06:04:19.467Z,73.83
2023-01-01T06:05:19.316Z,74.11
2023-01-01T06:06:19.287Z,73.92
2023-01-01T06:07:19.282Z,74.08
2023-01-01T06:08:19.280Z,73.73
2023-01-01T06:09:19.245Z,73.79
2023-01-01T06:10:19.228Z,73.69
2023-01-01T06:11:19.227Z,73.88
2023-01-01T06:12:19.202Z,73.79
2023-01-01T06:13:19.190Z,73.88
2023-01-01T06:14:19.182Z,73.79
2023-01-01T06:15:19.156Z,73.98
2023-01-01T06:16:19.169Z,73.98
2023-01-01T06:17:19.137Z,73.79
2023-01-01T06:18:19.113Z,73.88
2023-01-01T06:19:19.129Z,73.98
2023-01-01T06:20:19.083Z,73.88
2023-01-01T06:21:19.083Z,74.08
2023-01-01T06:22:19.053Z,73.92
2023-01-01T06:23:19.033Z,73.79
2023-01-01T06:24:19.026Z,73.63
2023-01-01T06:25:19.012Z,73.69
2023-01-01T06:26:18.997Z,73.60
2023-01-01T06:27:18.978Z,73.79
2023-01-01T06:28:18.969Z,73.69
2023-01-01T06:29:18.958Z,74.08
2023-01-01T06:30:18.936Z,73.98
2023-01-01T06:31:18.972Z,73.98
2023-01-01T06:32:18.903Z,73.79
2023-01-01T06:33:18.931Z,73.79
2023-01-01T06:34:18.876Z,73.88
2023-01-01T06:35:18.861Z,74.08
2023-01-01T06:36:18.873Z,74.17
2023-01-01T06:37:18.831Z,73.98
2023-01-01T06:38:18.886Z,73.88
2023-01-01T06:39:18.899Z,73.50
2023-01-01T06:40:18.822Z,73.98
2023-01-01T06:41:18.855Z,73.79
2023-01-01T06:42:18.866Z,73.79
2023-01-01T06:43:18.786Z,73.98
2023-01-01T06:44:19.037Z,73.69
2023-01-01T06:45:18.798Z,73.79
2023-01-01T06:46:18.839Z,73.88
2023-01-01T06:47:20.529Z,73.79
2023-01-01T06:48:27.726Z,73.79
2023-01-01T06:50:24.441Z,73.79
2023-01-01T06:51:24.239Z,73.98
2023-01-01T06:53:28.860Z,73.98
2023-01-01T06:54:29.196Z,73.98
2023-01-01T07:00:22.985Z,73.79
2023-01-01T07:01:22.839Z,74.08
2023-01-01T07:03:28.570Z,74.08
2023-01-01T07:04:28.392Z,73.79
2023-01-01T07:11:59.981Z,74.08
2023-01-01T07:12:59.626Z,73.88
2023-01-01T07:15:04.277Z,74.08
2023-01-01T07:16:10.190Z,74.46
2023-01-01T07:18:08.913Z,74.08
2023-01-01T07:19:08.855Z,73.98
2023-01-01T07:21:13.496Z,73.79
2023-01-01T07:22:13.683Z,74.08
2023-01-01T07:23:13.479Z,73.98
2023-01-01T07:24:13.460Z,74.17
2023-01-01T07:25:13.460Z,74.46
2023-01-01T07:26:13.677Z,74.52
2023-01-01T07:27:13.396Z,74.46
2023-01-01T07:28:13.378Z,73.88
2023-01-01T07:29:13.360Z,74.46
2023-01-01T07:30:13.360Z,74.61
2023-01-01T07:31:13.427Z,74.55
2023-01-01T07:32:13.308Z,73.88
2023-01-01T07:33:13.293Z,73.79
2023-01-01T07:34:13.279Z,74.08
2023-01-01T07:35:13.266Z,73.79
2023-01-01T07:36:13.260Z,73.79
2023-01-01T07:37:13.230Z,73.88
2023-01-01T07:38:13.224Z,73.88
2023-01-01T07:39:13.209Z,73.79
2023-01-01T07:40:13.192Z,73.79
2023-01-01T07:41:13.178Z,73.98
2023-01-01T07:42:13.159Z,73.88
2023-01-01T07:43:13.157Z,73.88
2023-01-01T07:44:13.145Z,73.50
2023-01-01T07:45:13.114Z,73.50
2023-01-01T07:46:13.180Z,73.79
2023-01-01T07:47:13.085Z,74.08
2023-01-01T07:48:13.071Z,73.88
2023-01-01T07:49:13.052Z,73.41
2023-01-01T07:50:13.042Z,73.41
2023-01-01T07:51:13.024Z,73.60
2023-01-01T07:52:13.010Z,73.35
2023-01-01T07:53:12.999Z,73.22
2023-01-01T07:54:12.986Z,73.35
2023-01-01T07:55:12.968Z,73.32
2023-01-01T07:56:12.952Z,73.69
2023-01-01T07:57:12.940Z,73.25
2023-01-01T07:58:12.924Z,73.16
2023-01-01T07:59:18.498Z,73.44
2023-01-01T08:00:12.910Z,73.16
2023-01-01T08:01:13.078Z,73.16
2023-01-01T08:02:13.065Z,72.78
2023-01-01T08:03:12.921Z,72.78
2023-01-01T08:04:12.835Z,72.87
2023-01-01T08:05:12.825Z,72.78
2023-01-01T08:06:12.816Z,72.78
2023-01-01T08:07:12.793Z,72.97
2023-01-01T08:08:12.776Z,73.07
2023-01-01T08:09:12.760Z,72.78
2023-01-01T08:10:12.751Z,72.87
2023-01-01T08:11:12.730Z,72.62
2023-01-01T08:12:12.722Z,72.72
2023-01-01T08:13:12.700Z,72.62
2023-01-01T08:14:12.696Z,72.33
2023-01-01T08:15:12.699Z,72.33
2023-01-01T08:16:12.673Z,71.67
2023-01-01T08:17:12.644Z,71.67
2023-01-01T08:18:12.631Z,71.86
2023-01-01T08:19:12.617Z,71.99
2023-01-01T08:20:12.610Z,71.89
2023-01-01T08:21:12.592Z,71.80
2023-01-01T08:22:12.573Z,71.70
2023-01-01T08:23:12.555Z,71.89
2023-01-01T08:24:12.542Z,71.51
2023-01-01T08:25:12.531Z,71.42
2023-01-01T08:26:12.517Z,71.32
2023-01-01T08:27:12.500Z,70.97
2023-01-01T08:28:12.485Z,71.45
2023-01-01T08:29:12.471Z,71.26
2023-01-01T08:30:12.454Z,70.87
2023-01-01T08:31:12.483Z,70.68
2023-01-01T08:32:12.434Z,71.07
2023-01-01T08:33:12.424Z,71.07
2023-01-01T08:34:12.400Z,70.59
2023-01-01T08:35:12.405Z,70.72
2023-01-01T08:36:12.370Z,71.01
2023-01-01T08:37:12.375Z,70.53
2023-01-01T08:38:12.353Z,70.43
2023-01-01T08:39:12.331Z,70.05
2023-01-01T08:40:12.320Z,69.67
2023-01-01T08:41:12.312Z,69.19
2023-01-01T08:42:12.781Z,69.51
2023-01-01T08:43:12.286Z,69.00
2023-01-01T08:44:12.262Z,69.32
2023-01-01T08:45:12.260Z,69.13
2023-01-01T08:46:12.286Z,69.13
2023-01-01T08:47:12.221Z,69.13
2023-01-01T08:48:12.215Z,69.13
2023-01-01T08:49:12.194Z,69.13
2023-01-01T08:50:12.181Z,68.27
2023-01-01T08:51:12.166Z,68.49
2023-01-01T08:52:12.150Z,68.49
2023-01-01T08:53:12.174Z,68.59
2023-01-01T08:54:12.128Z,68.68
2023-01-01T08:55:12.115Z,68.59
2023-01-01T08:56:12.097Z,68.40
2023-01-01T08:57:12.085Z,68.40
2023-01-01T08:58:12.071Z,68.59
2023-01-01T08:59:12.061Z,67.91
2023-01-01T09:00:12.044Z,68.11
2023-01-01T09:01:12.114Z,68.21
2023-01-01T09:02:12.222Z,68.01
2023-01-01T09:03:12.260Z,67.72
2023-01-01T09:04:15.523Z,67.44
2023-01-01T09:05:11.978Z,67.63
2023-01-01T09:06:11.965Z,67.54
2023-01-01T09:07:11.954Z,67.54
2023-01-01T09:08:11.938Z,67.54
2023-01-01T09:09:11.925Z,67.72
2023-01-01T09:10:11.919Z,67.91
2023-01-01T09:11:11.897Z,67.72
2023-01-01T09:12:11.892Z,67.63
2023-01-01T09:13:11.873Z,67.76
2023-01-01T09:14:11.866Z,67.18
2023-01-01T09:15:11.846Z,67.47
2023-01-01T09:16:11.857Z,66.89
2023-01-01T09:17:11.820Z,66.80
2023-01-01T09:18:11.813Z,66.89
2023-01-01T09:19:11.793Z,67.09
2023-01-01T09:20:11.793Z,67.02
2023-01-01T09:21:11.774Z,66.45
2023-01-01T09:22:11.761Z,66.55
2023-01-01T09:23:11.754Z,66.55
2023-01-01T09:24:11.732Z,66.45
2023-01-01T09:25:11.725Z,65.91
2023-01-01T09:26:11.701Z,65.91
2023-01-01T09:27:11.699Z,66.10
2023-01-01T09:28:11.686Z,65.52
2023-01-01T09:29:11.670Z,65.36
2023-01-01T09:30:11.653Z,65.36
2023-01-01T09:31:11.658Z,65.17
2023-01-01T09:32:11.624Z,65.08
2023-01-01T09:33:11.621Z,64.59
2023-01-01T09:34:11.601Z,64.69
2023-01-01T09:35:11.591Z,64.69
2023-01-01T09:36:11.577Z,64.79
2023-01-01T09:37:11.565Z,64.59
2023-01-01T09:38:11.554Z,64.79
2023-01-01T09:39:11.552Z,64.40
2023-01-01T09:40:11.526Z,64.82
2023-01-01T09:41:11.520Z,64.63
2023-01-01T09:42:11.517Z,63.48
2023-01-01T09:43:11.506Z,63.57
2023-01-01T09:44:11.494Z,63.19
2023-01-01T09:45:11.479Z,63.09
2023-01-01T09:46:11.508Z,63.12
2023-01-01T09:47:11.439Z,62.90
2023-01-01T09:48:11.431Z,63.19
2023-01-01T09:49:11.432Z,63.19
2023-01-01T09:50:11.405Z,63.28
2023-01-01T09:51:11.396Z,63.19
2023-01-01T09:52:11.386Z,63.45
2023-01-01T09:53:11.368Z,63.54
2023-01-01T09:54:11.360Z,63.92
2023-01-01T09:55:11.347Z,63.92
2023-01-01T09:56:11.334Z,64.02
2023-01-01T09:57:16.403Z,63.92
2023-01-01T09:58:11.312Z,63.54
2023-01-01T09:59:11.320Z,63.64
2023-01-01T10:00:11.288Z,63.64
2023-01-01T10:01:11.440Z,63.83
2023-01-01T10:02:11.359Z,63.45
2023-01-01T10:03:11.250Z,63.54
2023-01-01T10:04:11.275Z,63.45
2023-01-01T10:05:11.232Z,63.19
2023-01-01T10:06:11.210Z,63.09
2023-01-01T10:07:11.212Z,63.19
2023-01-01T10:08:11.205Z,63.09
2023-01-01T10:09:11.175Z,62.99
2023-01-01T10:10:11.169Z,62.90
2023-01-01T10:11:11.152Z,62.71
2023-01-01T10:12:11.137Z,62.71
2023-01-01T10:13:11.127Z,62.71
2023-01-01T10:14:11.118Z,62.42
2023-01-01T10:15:11.102Z,62.61
2023-01-01T10:16:11.141Z,62.90
2023-01-01T10:17:11.197Z,62.64
2023-01-01T10:18:11.074Z,62.74
2023-01-01T10:19:11.061Z,62.45
2023-01-01T10:20:11.044Z,62.84
2023-01-01T10:21:11.034Z,62.64
2023-01-01T10:22:11.021Z,62.35
2023-01-01T10:23:11.014Z,61.91
2023-01-01T10:24:11.002Z,61.91
2023-01-01T10:25:11.054Z,61.52
2023-01-01T10:26:10.974Z,61.36
2023-01-01T10:27:10.961Z,61.16
2023-01-01T10:28:10.953Z,60.78
2023-01-01T10:29:10.941Z,60.59
2023-01-01T10:30:10.927Z,60.30
2023-01-01T10:31:10.921Z,60.33
2023-01-01T10:32:10.906Z,60.21
2023-01-01T10:33:10.893Z,60.11
2023-01-01T10:34:10.880Z,60.21
2023-01-01T10:35:10.874Z,60.69
2023-01-01T10:36:10.859Z,60.69
2023-01-01T10:37:10.855Z,60.39
2023-01-01T10:38:10.845Z,60.49
2023-01-01T10:39:10.828Z,60.49
2023-01-01T10:40:10.818Z,60.52
2023-01-01T10:41:15.364Z,60.52
2023-01-01T10:42:10.792Z,60.62
2023-01-01T10:43:10.782Z,60.14
2023-01-01T10:44:10.775Z,59.97
2023-01-01T10:45:10.772Z,59.78
2023-01-01T10:46:10.777Z,59.43
2023-01-01T10:47:10.760Z,58.85
2023-01-01T10:48:10.726Z,58.56
2023-01-01T10:49:10.739Z,57.98
2023-01-01T10:50:10.710Z,57.98
2023-01-01T10:51:10.696Z,58.15
2023-01-01T10:52:10.683Z,59.01
2023-01-01T10:53:10.683Z,58.98
2023-01-01T10:54:10.682Z,59.08
2023-01-01T10:55:10.657Z,59.17
2023-01-01T10:56:10.647Z,59.15
2023-01-01T10:57:10.716Z,58.86
2023-01-01T10:58:10.764Z,59.44
2023-01-01T10:59:10.612Z,59.41
2023-01-01T11:00:10.604Z,59.22
2023-01-01T11:01:10.703Z,59.69
2023-01-01T11:02:10.780Z,59.99
2023-01-01T11:03:10.615Z,59.89
2023-01-01T11:04:10.557Z,59.69
2023-01-01T11:05:13.889Z,59.89
2023-01-01T11:06:10.556Z,59.60
2023-01-01T11:07:10.525Z,59.69
2023-01-01T11:08:10.518Z,59.76
2023-01-01T11:09:10.501Z,59.66
2023-01-01T11:10:10.490Z,60.24
2023-01-01T11:11:10.496Z,59.95
2023-01-01T11:12:30.670Z,60.11
2023-01-01T11:13:10.452Z,60.21
2023-01-01T11:14:10.442Z,60.31
2023-01-01T11:15:10.428Z,60.02
2023-01-01T11:16:10.418Z,60.02
2023-01-01T11:17:10.422Z,60.11
2023-01-01T11:18:10.418Z,59.83
2023-01-01T11:19:10.382Z,60.21
2023-01-01T11:20:10.376Z,60.11
2023-01-01T11:21:10.364Z,60.11
2023-01-01T11:22:10.357Z,60.02
2023-01-01T11:23:10.339Z,60.02
2023-01-01T11:24:10.361Z,59.92
2023-01-01T11:25:10.332Z,60.11
2023-01-01T11:26:10.305Z,60.40
2023-01-01T11:27:10.290Z,60.50
2023-01-01T11:28:10.285Z,60.31
2023-01-01T11:29:10.266Z,60.40
2023-01-01T11:30:10.256Z,60.28
2023-01-01T11:31:10.308Z,60.66
2023-01-01T11:32:10.234Z,60.38
2023-01-01T11:33:10.215Z,61.05
2023-01-01T11:34:10.205Z,60.72
2023-01-01T11:35:10.250Z,60.82
2023-01-01T11:36:10.189Z,60.82
2023-01-01T11:37:10.168Z,61.30
2023-01-01T11:38:10.163Z,61.75
2023-01-01T11:39:10.153Z,61.85
2023-01-01T11:40:10.132Z,61.66
2023-01-01T11:41:10.127Z,61.56
2023-01-01T11:42:10.113Z,61.46
2023-01-01T11:43:10.095Z,61.66
2023-01-01T11:44:10.080Z,61.75
2023-01-01T11:45:10.074Z,61.27
2023-01-01T11:46:10.124Z,61.82
2023-01-01T11:47:10.049Z,61.82
2023-01-01T11:48:10.034Z,61.82
2023-01-01T11:49:10.024Z,61.91
2023-01-01T11:50:10.006Z,62.10
2023-01-01T11:51:09.997Z,62.01
2023-01-01T11:52:09.981Z,62.30
2023-01-01T11:53:09.971Z,62.20
2023-01-01T11:54:10.006Z,62.10
2023-01-01T11:55:09.943Z,62.30
2023-01-01T11:56:09.934Z,62.39
2023-01-01T11:57:09.922Z,62.20
2023-01-01T11:58:14.348Z,62.10
2023-01-01T11:59:09.896Z,62.20
2023-01-01T12:00:09.882Z,62.59
2023-01-01T12:01:09.907Z,62.30
2023-01-01T12:02:09.890Z,62.68
2023-01-01T12:03:09.844Z,62.39
2023-01-01T12:04:09.859Z,62.68
2023-01-01T12:05:09.817Z,62.59
2023-01-01T12:06:09.807Z,62.49
2023-01-01T12:07:09.810Z,62.49
2023-01-01T12:08:09.785Z,62.68
2023-01-01T12:09:14.622Z,62.10
2023-01-01T12:10:09.757Z,62.20
2023-01-01T12:11:09.740Z,62.59
2023-01-01T12:12:09.731Z,62.39
2023-01-01T12:13:09.713Z,62.30
2023-01-01T12:14:09.699Z,62.30
2023-01-01T12:15:09.691Z,62.20
2023-01-01T12:16:09.715Z,62.59
2023-01-01T12:17:09.660Z,62.68
2023-01-01T12:18:09.645Z,62.77
2023-01-01T12:19:09.655Z,62.68
2023-01-01T12:20:09.631Z,62.46
2023-01-01T12:21:09.607Z,62.96
2023-01-01T12:22:09.592Z,63.06
2023-01-01T12:23:09.579Z,62.87
2023-01-01T12:24:09.565Z,62.87
2023-01-01T12:25:09.559Z,63.13
2023-01-01T12:26:09.542Z,63.13
2023-01-01T12:27:11.075Z,63.03
2023-01-01T12:28:09.514Z,63.22
2023-01-01T12:29:09.508Z,63.03
2023-01-01T12:30:09.503Z,63.03
2023-01-01T12:31:09.609Z,63.03
2023-01-01T12:32:09.464Z,62.74
2023-01-01T12:33:09.450Z,63.03
2023-01-01T12:34:09.448Z,62.93
2023-01-01T12:35:09.427Z,62.84
2023-01-01T12:36:09.412Z,62.74
2023-01-01T12:37:09.410Z,63.22
2023-01-01T12:38:09.391Z,63.42
2023-01-01T12:39:09.378Z,63.48
2023-01-01T12:40:17.061Z,63.67
2023-01-01T12:41:09.352Z,63.39
2023-01-01T12:42:09.335Z,63.48
2023-01-01T12:43:09.314Z,63.76
2023-01-01T12:44:09.310Z,63.86
2023-01-01T12:45:09.292Z,63.76
2023-01-01T12:46:09.334Z,63.67
2023-01-01T12:47:09.283Z,63.57
2023-01-01T12:48:09.253Z,63.39
2023-01-01T12:49:09.240Z,63.86
2023-01-01T12:50:09.234Z,64.05
2023-01-01T12:51:09.243Z,64.05
2023-01-01T12:52:09.202Z,63.86
2023-01-01T12:53:09.221Z,64.25
2023-01-01T12:54:09.185Z,64.25
2023-01-01T12:55:09.161Z,64.34
2023-01-01T12:56:09.152Z,63.86
2023-01-01T12:57:09.135Z,63.86
2023-01-01T12:58:09.128Z,63.96
2023-01-01T12:59:09.310Z,63.96
2023-01-01T13:00:09.178Z,63.96
2023-01-01T13:01:09.100Z,63.96
2023-01-01T13:02:09.185Z,64.34
2023-01-01T13:03:09.129Z,63.76
2023-01-01T13:04:09.056Z,64.34
2023-01-01T13:05:09.191Z,64.25
2023-01-01T13:06:09.032Z,64.25
2023-01-01T13:07:09.020Z,64.25
2023-01-01T13:08:08.997Z,64.34
2023-01-01T13:09:08.984Z,64.34
2023-01-01T13:10:08.958Z,64.05
2023-01-01T13:11:08.969Z,64.05
2023-01-01T13:12:08.933Z,64.15
2023-01-01T13:13:08.923Z,64.25
2023-01-01T13:14:08.905Z,63.96
2023-01-01T13:15:08.891Z,64.15
2023-01-01T13:16:08.916Z,64.05
2023-01-01T13:17:08.878Z,63.96
2023-01-01T13:18:08.849Z,63.76
2023-01-01T13:19:08.836Z,63.96
2023-01-01T13:20:08.831Z,63.96
2023-01-01T13:21:08.827Z,63.76
2023-01-01T13:22:08.790Z,64.05
2023-01-01T13:23:08.781Z,64.34
2023-01-01T13:24:08.850Z,64.53
2023-01-01T13:25:08.751Z,64.15
2023-01-01T13:26:08.747Z,64.31
2023-01-01T13:27:10.755Z,64.72
2023-01-01T13:28:08.712Z,64.63
2023-01-01T13:29:08.694Z,64.50
2023-01-01T13:30:08.708Z,64.40
2023-01-01T13:31:08.679Z,64.31
2023-01-01T13:32:08.669Z,64.50
2023-01-01T13:33:08.697Z,64.79
2023-01-01T13:34:08.628Z,64.79
2023-01-01T13:35:08.625Z,64.98
2023-01-01T13:36:08.865Z,64.98
2023-01-01T13:37:08.588Z,64.88
2023-01-01T13:38:08.580Z,64.88
2023-01-01T13:39:08.561Z,64.98
2023-01-01T13:40:08.577Z,65.08
2023-01-01T13:41:08.534Z,64.98
2023-01-01T13:42:08.521Z,65.08
2023-01-01T13:43:08.519Z,65.08
2023-01-01T13:44:08.510Z,64.98
2023-01-01T13:45:08.501Z,64.79
2023-01-01T13:46:13.868Z,64.79
2023-01-01T13:47:08.483Z,64.88
2023-01-01T13:48:08.442Z,64.79
2023-01-01T13:49:08.439Z,64.98
2023-01-01T13:50:08.423Z,65.36
2023-01-01T13:51:08.737Z,65.17
2023-01-01T13:52:08.756Z,65.26
2023-01-01T13:53:08.370Z,65.36
2023-01-01T13:54:08.692Z,65.17
2023-01-01T13:55:08.358Z,65.36
2023-01-01T13:56:08.332Z,65.36
2023-01-01T13:57:08.437Z,65.08
2023-01-01T13:58:08.345Z,65.36
2023-01-01T13:59:08.313Z,65.36
2023-01-01T14:00:08.276Z,65.17
2023-01-01T14:01:08.354Z,65.08
2023-01-01T14:02:08.408Z,65.17
2023-01-01T14:03:08.270Z,65.45
2023-01-01T14:04:08.221Z,64.88